sensor_id;sensor_type;location;lat;lon;timestamp;P1;durP1;ratioP1;P2;durP2;ratioP2
35847;SDS011;22332;51.954;20.118;2023-07-29T00:00:24;3.10;;;2.70;;
35847;SDS011;22332;51.954;20.118;2023-07-29T00:03:50;4.50;;;3.50;;
35847;SDS011;22332;51.954;20.118;2023-07-29T00:06:56;4.00;;;3.00;;
35847;SDS011;22332;51.954;20.118;2023-07-29T00:10:01;3.60;;;2.80;;
35847;SDS011;22332;51.954;20.118;2023-07-29T00:13:08;5.50;;;3.30;;
35847;SDS011;22332;51.954;20.118;2023-07-29T00:16:13;4.00;;;3.50;;
35847;SDS011;22332;51.954;20.118;2023-07-29T00:19:20;4.10;;;3.50;;
35847;SDS011;22332;51.954;20.118;2023-07-29T00:22:26;4.90;;;3.00;;
35847;SDS011;22332;51.954;20.118;2023-07-29T00:25:31;3.50;;;2.80;;
35847;SDS011;22332;51.954;20.118;2023-07-29T00:28:37;4.60;;;3.50;;
35847;SDS011;22332;51.954;20.118;2023-07-29T00:31:43;4.60;;;4.00;;
35847;SDS011;22332;51.954;20.118;2023-07-29T00:34:48;5.50;;;3.70;;
35847;SDS011;22332;51.954;20.118;2023-07-29T00:37:53;3.90;;;3.50;;
35847;SDS011;22332;51.954;20.118;2023-07-29T00:40:59;4.60;;;3.60;;
35847;SDS011;22332;51.954;20.118;2023-07-29T00:44:06;7.10;;;4.00;;
35847;SDS011;22332;51.954;20.118;2023-07-29T00:47:11;5.80;;;3.90;;
35847;SDS011;22332;51.954;20.118;2023-07-29T00:50:18;4.90;;;3.70;;
35847;SDS011;22332;51.954;20.118;2023-07-29T00:53:25;4.80;;;3.70;;
35847;SDS011;22332;51.954;20.118;2023-07-29T00:56:30;5.40;;;4.40;;
35847;SDS011;22332;51.954;20.118;2023-07-29T00:59:36;5.00;;;4.20;;
35847;SDS011;22332;51.954;20.118;2023-07-29T01:02:42;4.70;;;4.20;;
35847;SDS011;22332;51.954;20.118;2023-07-29T01:05:56;4.60;;;3.90;;
35847;SDS011;22332;51.954;20.118;2023-07-29T01:09:11;4.50;;;4.10;;
35847;SDS011;22332;51.954;20.118;2023-07-29T01:12:28;4.80;;;4.30;;
35847;SDS011;22332;51.954;20.118;2023-07-29T01:15:45;5.00;;;3.90;;
35847;SDS011;22332;51.954;20.118;2023-07-29T01:18:57;6.00;;;4.40;;
35847;SDS011;22332;51.954;20.118;2023-07-29T01:22:08;5.10;;;4.50;;
35847;SDS011;22332;51.954;20.118;2023-07-29T01:25:17;5.90;;;4.80;;
35847;SDS011;22332;51.954;20.118;2023-07-29T01:28:22;5.40;;;4.50;;
35847;SDS011;22332;51.954;20.118;2023-07-29T01:31:31;4.90;;;4.20;;
35847;SDS011;22332;51.954;20.118;2023-07-29T01:34:43;9.40;;;4.70;;
35847;SDS011;22332;51.954;20.118;2023-07-29T01:37:58;5.00;;;4.50;;
35847;SDS011;22332;51.954;20.118;2023-07-29T01:41:12;6.10;;;4.30;;
35847;SDS011;22332;51.954;20.118;2023-07-29T01:44:18;5.10;;;4.10;;
35847;SDS011;22332;51.954;20.118;2023-07-29T01:47:24;5.50;;;4.50;;
35847;SDS011;22332;51.954;20.118;2023-07-29T01:50:31;4.80;;;3.90;;
35847;SDS011;22332;51.954;20.118;2023-07-29T01:53:37;6.50;;;4.30;;
35847;SDS011;22332;51.954;20.118;2023-07-29T01:56:43;4.90;;;4.40;;
35847;SDS011;22332;51.954;20.118;2023-07-29T01:59:48;4.50;;;4.10;;
35847;SDS011;22332;51.954;20.118;2023-07-29T02:02:54;5.00;;;4.20;;
35847;SDS011;22332;51.954;20.118;2023-07-29T02:05:59;6.90;;;4.80;;
35847;SDS011;22332;51.954;20.118;2023-07-29T02:09:05;5.60;;;4.60;;
35847;SDS011;22332;51.954;20.118;2023-07-29T02:12:11;5.30;;;4.80;;
35847;SDS011;22332;51.954;20.118;2023-07-29T02:15:16;5.90;;;4.80;;
35847;SDS011;22332;51.954;20.118;2023-07-29T02:18:22;8.60;;;4.90;;
35847;SDS011;22332;51.954;20.118;2023-07-29T02:21:28;7.90;;;6.10;;
35847;SDS011;22332;51.954;20.118;2023-07-29T02:24:33;5.40;;;4.80;;
35847;SDS011;22332;51.954;20.118;2023-07-29T02:27:39;6.60;;;5.10;;
35847;SDS011;22332;51.954;20.118;2023-07-29T02:30:48;5.70;;;5.10;;
35847;SDS011;22332;51.954;20.118;2023-07-29T02:34:16;5.60;;;5.10;;
35847;SDS011;22332;51.954;20.118;2023-07-29T02:37:21;5.00;;;4.50;;
35847;SDS011;22332;51.954;20.118;2023-07-29T02:40:27;4.90;;;4.40;;
35847;SDS011;22332;51.954;20.118;2023-07-29T02:43:32;6.00;;;4.80;;
35847;SDS011;22332;51.954;20.118;2023-07-29T02:46:38;5.20;;;4.20;;
35847;SDS011;22332;51.954;20.118;2023-07-29T02:49:43;4.80;;;4.30;;
35847;SDS011;22332;51.954;20.118;2023-07-29T02:52:49;5.30;;;3.90;;
35847;SDS011;22332;51.954;20.118;2023-07-29T02:55:55;5.50;;;3.60;;
35847;SDS011;22332;51.954;20.118;2023-07-29T02:59:00;4.40;;;3.70;;
35847;SDS011;22332;51.954;20.118;2023-07-29T03:02:06;5.20;;;4.00;;
35847;SDS011;22332;51.954;20.118;2023-07-29T03:05:12;5.20;;;4.10;;
35847;SDS011;22332;51.954;20.118;2023-07-29T03:08:19;5.00;;;4.10;;
35847;SDS011;22332;51.954;20.118;2023-07-29T03:11:25;4.30;;;3.90;;
35847;SDS011;22332;51.954;20.118;2023-07-29T03:14:30;4.60;;;4.00;;
35847;SDS011;22332;51.954;20.118;2023-07-29T03:17:37;5.00;;;4.20;;
35847;SDS011;22332;51.954;20.118;2023-07-29T03:20:42;4.90;;;4.40;;
35847;SDS011;22332;51.954;20.118;2023-07-29T03:23:48;5.00;;;4.10;;
35847;SDS011;22332;51.954;20.118;2023-07-29T03:26:53;5.90;;;4.20;;
35847;SDS011;22332;51.954;20.118;2023-07-29T03:29:59;4.70;;;4.20;;
35847;SDS011;22332;51.954;20.118;2023-07-29T03:33:05;5.70;;;4.10;;
35847;SDS011;22332;51.954;20.118;2023-07-29T03:36:11;5.20;;;4.40;;
35847;SDS011;22332;51.954;20.118;2023-07-29T03:39:16;8.50;;;4.30;;
35847;SDS011;22332;51.954;20.118;2023-07-29T03:42:22;4.30;;;3.80;;
35847;SDS011;22332;51.954;20.118;2023-07-29T03:45:27;3.80;;;3.50;;
35847;SDS011;22332;51.954;20.118;2023-07-29T03:48:33;4.60;;;4.00;;
35847;SDS011;22332;51.954;20.118;2023-07-29T03:51:39;4.90;;;4.40;;
35847;SDS011;22332;51.954;20.118;2023-07-29T03:54:45;4.20;;;3.70;;
35847;SDS011;22332;51.954;20.118;2023-07-29T03:57:50;4.30;;;3.40;;
35847;SDS011;22332;51.954;20.118;2023-07-29T04:00:56;4.20;;;3.50;;
35847;SDS011;22332;51.954;20.118;2023-07-29T04:04:01;5.00;;;4.00;;
35847;SDS011;22332;51.954;20.118;2023-07-29T04:07:08;4.60;;;4.20;;
35847;SDS011;22332;51.954;20.118;2023-07-29T04:10:13;5.50;;;4.00;;
35847;SDS011;22332;51.954;20.118;2023-07-29T04:13:19;4.40;;;4.00;;
35847;SDS011;22332;51.954;20.118;2023-07-29T04:16:25;4.50;;;3.80;;
35847;SDS011;22332;51.954;20.118;2023-07-29T04:19:31;6.50;;;4.30;;
35847;SDS011;22332;51.954;20.118;2023-07-29T04:22:37;4.60;;;4.20;;
35847;SDS011;22332;51.954;20.118;2023-07-29T04:25:42;6.20;;;3.90;;
35847;SDS011;22332;51.954;20.118;2023-07-29T04:28:48;5.50;;;4.10;;
35847;SDS011;22332;51.954;20.118;2023-07-29T04:31:53;6.10;;;4.50;;
35847;SDS011;22332;51.954;20.118;2023-07-29T04:34:59;4.70;;;4.30;;
35847;SDS011;22332;51.954;20.118;2023-07-29T04:38:05;5.10;;;4.60;;
35847;SDS011;22332;51.954;20.118;2023-07-29T04:41:10;5.70;;;4.00;;
35847;SDS011;22332;51.954;20.118;2023-07-29T04:44:16;4.70;;;4.20;;
35847;SDS011;22332;51.954;20.118;2023-07-29T04:47:21;4.20;;;3.70;;
35847;SDS011;22332;51.954;20.118;2023-07-29T04:50:27;5.30;;;4.30;;
35847;SDS011;22332;51.954;20.118;2023-07-29T04:53:33;4.80;;;4.20;;
35847;SDS011;22332;51.954;20.118;2023-07-29T04:56:40;4.20;;;3.80;;
35847;SDS011;22332;51.954;20.118;2023-07-29T04:59:46;3.90;;;3.50;;
35847;SDS011;22332;51.954;20.118;2023-07-29T05:02:51;4.70;;;4.10;;
35847;SDS011;22332;51.954;20.118;2023-07-29T05:05:57;6.00;;;4.70;;
35847;SDS011;22332;51.954;20.118;2023-07-29T05:09:13;5.60;;;4.90;;
35847;SDS011;22332;51.954;20.118;2023-07-29T05:12:19;6.30;;;4.50;;
35847;SDS011;22332;51.954;20.118;2023-07-29T05:15:25;6.00;;;4.30;;
35847;SDS011;22332;51.954;20.118;2023-07-29T05:18:30;4.00;;;3.60;;
35847;SDS011;22332;51.954;20.118;2023-07-29T05:21:36;3.40;;;3.10;;
35847;SDS011;22332;51.954;20.118;2023-07-29T05:24:43;4.40;;;3.90;;
35847;SDS011;22332;51.954;20.118;2023-07-29T05:27:49;5.20;;;3.80;;
35847;SDS011;22332;51.954;20.118;2023-07-29T05:30:54;4.00;;;3.70;;
35847;SDS011;22332;51.954;20.118;2023-07-29T05:34:00;3.50;;;3.20;;
35847;SDS011;22332;51.954;20.118;2023-07-29T05:37:06;5.00;;;3.50;;
35847;SDS011;22332;51.954;20.118;2023-07-29T05:40:12;3.90;;;3.20;;
35847;SDS011;22332;51.954;20.118;2023-07-29T05:43:17;3.30;;;3.00;;
35847;SDS011;22332;51.954;20.118;2023-07-29T05:46:23;4.90;;;3.10;;
35847;SDS011;22332;51.954;20.118;2023-07-29T05:49:29;3.30;;;3.00;;
35847;SDS011;22332;51.954;20.118;2023-07-29T05:52:34;4.00;;;3.20;;
35847;SDS011;22332;51.954;20.118;2023-07-29T05:55:40;3.70;;;3.30;;
35847;SDS011;22332;51.954;20.118;2023-07-29T05:58:46;3.10;;;2.80;;
35847;SDS011;22332;51.954;20.118;2023-07-29T06:01:54;3.80;;;2.90;;
35847;SDS011;22332;51.954;20.118;2023-07-29T06:04:59;4.20;;;2.80;;
35847;SDS011;22332;51.954;20.118;2023-07-29T06:08:06;3.10;;;2.50;;
35847;SDS011;22332;51.954;20.118;2023-07-29T06:11:12;3.00;;;2.60;;
35847;SDS011;22332;51.954;20.118;2023-07-29T06:14:17;3.00;;;2.70;;
35847;SDS011;22332;51.954;20.118;2023-07-29T06:17:24;2.80;;;2.50;;
35847;SDS011;22332;51.954;20.118;2023-07-29T06:20:30;3.30;;;2.90;;
35847;SDS011;22332;51.954;20.118;2023-07-29T06:23:36;2.90;;;2.60;;
35847;SDS011;22332;51.954;20.118;2023-07-29T06:26:42;3.30;;;2.10;;
35847;SDS011;22332;51.954;20.118;2023-07-29T06:29:47;2.50;;;2.30;;
35847;SDS011;22332;51.954;20.118;2023-07-29T06:32:53;2.80;;;2.30;;
35847;SDS011;22332;51.954;20.118;2023-07-29T06:35:58;2.70;;;2.40;;
35847;SDS011;22332;51.954;20.118;2023-07-29T06:39:04;2.50;;;2.30;;
35847;SDS011;22332;51.954;20.118;2023-07-29T06:42:10;2.30;;;2.10;;
35847;SDS011;22332;51.954;20.118;2023-07-29T06:45:15;3.10;;;2.30;;
35847;SDS011;22332;51.954;20.118;2023-07-29T06:48:21;2.30;;;2.10;;
35847;SDS011;22332;51.954;20.118;2023-07-29T06:51:27;3.50;;;2.20;;
35847;SDS011;22332;51.954;20.118;2023-07-29T06:54:35;2.70;;;2.20;;
35847;SDS011;22332;51.954;20.118;2023-07-29T06:57:41;2.30;;;2.10;;
35847;SDS011;22332;51.954;20.118;2023-07-29T07:00:46;1.80;;;1.70;;
35847;SDS011;22332;51.954;20.118;2023-07-29T07:03:52;2.10;;;1.90;;
35847;SDS011;22332;51.954;20.118;2023-07-29T07:06:58;2.30;;;2.10;;
35847;SDS011;22332;51.954;20.118;2023-07-29T07:10:04;2.40;;;2.20;;
35847;SDS011;22332;51.954;20.118;2023-07-29T07:13:10;2.30;;;2.00;;
35847;SDS011;22332;51.954;20.118;2023-07-29T07:16:16;2.20;;;2.00;;
35847;SDS011;22332;51.954;20.118;2023-07-29T07:19:21;2.30;;;2.00;;
35847;SDS011;22332;51.954;20.118;2023-07-29T07:22:27;2.10;;;1.90;;
35847;SDS011;22332;51.954;20.118;2023-07-29T07:25:32;2.40;;;1.60;;
35847;SDS011;22332;51.954;20.118;2023-07-29T07:28:38;1.70;;;1.60;;
35847;SDS011;22332;51.954;20.118;2023-07-29T07:31:48;2.10;;;1.60;;
35847;SDS011;22332;51.954;20.118;2023-07-29T07:34:56;1.60;;;1.50;;
35847;SDS011;22332;51.954;20.118;2023-07-29T07:38:01;1.80;;;1.70;;
35847;SDS011;22332;51.954;20.118;2023-07-29T07:41:10;1.90;;;1.60;;
35847;SDS011;22332;51.954;20.118;2023-07-29T07:44:15;1.90;;;1.70;;
35847;SDS011;22332;51.954;20.118;2023-07-29T07:47:22;3.50;;;1.50;;
35847;SDS011;22332;51.954;20.118;2023-07-29T07:50:29;2.20;;;1.90;;
35847;SDS011;22332;51.954;20.118;2023-07-29T07:53:35;1.80;;;1.50;;
35847;SDS011;22332;51.954;20.118;2023-07-29T07:56:41;2.20;;;1.70;;
35847;SDS011;22332;51.954;20.118;2023-07-29T07:59:46;2.10;;;1.50;;
35847;SDS011;22332;51.954;20.118;2023-07-29T08:02:51;1.60;;;1.50;;
35847;SDS011;22332;51.954;20.118;2023-07-29T08:05:57;1.50;;;1.40;;
35847;SDS011;22332;51.954;20.118;2023-07-29T08:09:03;2.60;;;1.30;;
35847;SDS011;22332;51.954;20.118;2023-07-29T08:12:08;3.50;;;1.50;;
35847;SDS011;22332;51.954;20.118;2023-07-29T08:15:14;2.60;;;1.40;;
35847;SDS011;22332;51.954;20.118;2023-07-29T08:18:20;1.40;;;1.30;;
35847;SDS011;22332;51.954;20.118;2023-07-29T08:21:26;2.10;;;1.30;;
35847;SDS011;22332;51.954;20.118;2023-07-29T08:24:31;1.70;;;1.10;;
35847;SDS011;22332;51.954;20.118;2023-07-29T08:27:37;2.10;;;1.10;;
35847;SDS011;22332;51.954;20.118;2023-07-29T08:30:43;1.30;;;1.20;;
35847;SDS011;22332;51.954;20.118;2023-07-29T08:33:49;1.90;;;1.60;;
35847;SDS011;22332;51.954;20.118;2023-07-29T08:36:54;1.50;;;1.40;;
35847;SDS011;22332;51.954;20.118;2023-07-29T08:40:00;3.00;;;1.60;;
35847;SDS011;22332;51.954;20.118;2023-07-29T08:43:06;1.60;;;1.50;;
35847;SDS011;22332;51.954;20.118;2023-07-29T08:46:13;2.70;;;1.50;;
35847;SDS011;22332;51.954;20.118;2023-07-29T08:49:19;2.00;;;1.80;;
35847;SDS011;22332;51.954;20.118;2023-07-29T08:52:26;3.00;;;1.80;;
35847;SDS011;22332;51.954;20.118;2023-07-29T08:55:34;2.10;;;1.90;;
35847;SDS011;22332;51.954;20.118;2023-07-29T08:58:40;2.40;;;1.90;;
35847;SDS011;22332;51.954;20.118;2023-07-29T09:01:47;2.20;;;2.00;;
35847;SDS011;22332;51.954;20.118;2023-07-29T09:04:53;3.20;;;1.70;;
35847;SDS011;22332;51.954;20.118;2023-07-29T09:07:58;3.60;;;1.90;;
35847;SDS011;22332;51.954;20.118;2023-07-29T09:11:06;4.10;;;2.10;;
35847;SDS011;22332;51.954;20.118;2023-07-29T09:14:12;2.30;;;2.10;;
35847;SDS011;22332;51.954;20.118;2023-07-29T09:17:18;2.20;;;2.00;;
35847;SDS011;22332;51.954;20.118;2023-07-29T09:20:25;2.20;;;2.00;;
35847;SDS011;22332;51.954;20.118;2023-07-29T09:23:39;2.40;;;2.00;;
35847;SDS011;22332;51.954;20.118;2023-07-29T09:26:49;2.80;;;2.00;;
35847;SDS011;22332;51.954;20.118;2023-07-29T09:29:56;2.00;;;1.90;;
35847;SDS011;22332;51.954;20.118;2023-07-29T09:33:02;2.10;;;1.90;;
35847;SDS011;22332;51.954;20.118;2023-07-29T09:36:09;2.80;;;1.80;;
35847;SDS011;22332;51.954;20.118;2023-07-29T09:39:15;2.50;;;2.10;;
35847;SDS011;22332;51.954;20.118;2023-07-29T09:42:21;3.20;;;2.20;;
35847;SDS011;22332;51.954;20.118;2023-07-29T09:45:27;2.90;;;2.60;;
35847;SDS011;22332;51.954;20.118;2023-07-29T09:48:33;2.30;;;2.10;;
35847;SDS011;22332;51.954;20.118;2023-07-29T09:51:40;2.40;;;2.20;;
35847;SDS011;22332;51.954;20.118;2023-07-29T09:54:45;2.40;;;2.20;;
35847;SDS011;22332;51.954;20.118;2023-07-29T09:57:54;2.30;;;2.10;;
35847;SDS011;22332;51.954;20.118;2023-07-29T10:01:04;2.50;;;1.90;;
35847;SDS011;22332;51.954;20.118;2023-07-29T10:04:10;2.00;;;1.90;;
35847;SDS011;22332;51.954;20.118;2023-07-29T10:07:17;2.40;;;2.20;;
35847;SDS011;22332;51.954;20.118;2023-07-29T10:10:24;2.00;;;1.80;;
35847;SDS011;22332;51.954;20.118;2023-07-29T10:13:31;4.30;;;1.90;;
35847;SDS011;22332;51.954;20.118;2023-07-29T10:16:37;1.70;;;1.60;;
35847;SDS011;22332;51.954;20.118;2023-07-29T10:19:47;2.20;;;1.70;;
35847;SDS011;22332;51.954;20.118;2023-07-29T10:22:54;1.80;;;1.70;;
35847;SDS011;22332;51.954;20.118;2023-07-29T10:26:03;1.90;;;1.80;;
35847;SDS011;22332;51.954;20.118;2023-07-29T10:29:14;2.00;;;1.80;;
35847;SDS011;22332;51.954;20.118;2023-07-29T10:32:24;2.00;;;1.70;;
35847;SDS011;22332;51.954;20.118;2023-07-29T10:35:30;1.80;;;1.60;;
35847;SDS011;22332;51.954;20.118;2023-07-29T10:38:37;2.10;;;1.90;;
35847;SDS011;22332;51.954;20.118;2023-07-29T10:41:55;2.00;;;1.80;;
35847;SDS011;22332;51.954;20.118;2023-07-29T10:45:04;1.70;;;1.60;;
35847;SDS011;22332;51.954;20.118;2023-07-29T10:48:42;1.80;;;1.70;;
35847;SDS011;22332;51.954;20.118;2023-07-29T10:51:48;1.50;;;1.40;;
35847;SDS011;22332;51.954;20.118;2023-07-29T10:54:54;1.50;;;1.40;;
35847;SDS011;22332;51.954;20.118;2023-07-29T10:58:08;1.90;;;1.80;;
35847;SDS011;22332;51.954;20.118;2023-07-29T11:01:20;1.70;;;1.50;;
35847;SDS011;22332;51.954;20.118;2023-07-29T11:04:32;2.10;;;1.60;;
35847;SDS011;22332;51.954;20.118;2023-07-29T11:07:52;1.90;;;1.70;;
35847;SDS011;22332;51.954;20.118;2023-07-29T11:11:03;1.80;;;1.50;;
35847;SDS011;22332;51.954;20.118;2023-07-29T11:14:10;2.10;;;1.60;;
35847;SDS011;22332;51.954;20.118;2023-07-29T11:17:17;1.50;;;1.40;;
35847;SDS011;22332;51.954;20.118;2023-07-29T11:20:24;1.50;;;1.40;;
35847;SDS011;22332;51.954;20.118;2023-07-29T11:23:31;1.60;;;1.50;;
35847;SDS011;22332;51.954;20.118;2023-07-29T11:26:38;4.00;;;1.40;;
35847;SDS011;22332;51.954;20.118;2023-07-29T11:29:55;2.30;;;1.70;;
35847;SDS011;22332;51.954;20.118;2023-07-29T11:33:02;2.10;;;1.50;;
35847;SDS011;22332;51.954;20.118;2023-07-29T11:36:18;1.60;;;1.40;;
35847;SDS011;22332;51.954;20.118;2023-07-29T11:39:23;1.70;;;1.50;;
35847;SDS011;22332;51.954;20.118;2023-07-29T11:42:31;2.10;;;1.70;;
35847;SDS011;22332;51.954;20.118;2023-07-29T11:45:37;3.80;;;1.50;;
35847;SDS011;22332;51.954;20.118;2023-07-29T11:48:45;1.70;;;1.60;;
35847;SDS011;22332;51.954;20.118;2023-07-29T11:51:51;3.40;;;1.70;;
35847;SDS011;22332;51.954;20.118;2023-07-29T11:54:58;1.50;;;1.40;;
35847;SDS011;22332;51.954;20.118;2023-07-29T11:58:04;1.70;;;1.60;;
35847;SDS011;22332;51.954;20.118;2023-07-29T12:01:09;5.00;;;1.50;;
35847;SDS011;22332;51.954;20.118;2023-07-29T12:04:15;1.50;;;1.40;;
35847;SDS011;22332;51.954;20.118;2023-07-29T12:07:21;1.80;;;1.60;;
35847;SDS011;22332;51.954;20.118;2023-07-29T12:10:27;1.70;;;1.60;;
35847;SDS011;22332;51.954;20.118;2023-07-29T12:13:33;1.70;;;1.60;;
35847;SDS011;22332;51.954;20.118;2023-07-29T12:16:42;1.50;;;1.40;;
35847;SDS011;22332;51.954;20.118;2023-07-29T12:19:48;1.70;;;1.60;;
35847;SDS011;22332;51.954;20.118;2023-07-29T12:22:59;1.70;;;1.60;;
35847;SDS011;22332;51.954;20.118;2023-07-29T12:26:05;2.00;;;1.90;;
35847;SDS011;22332;51.954;20.118;2023-07-29T12:29:13;3.70;;;1.90;;
35847;SDS011;22332;51.954;20.118;2023-07-29T12:32:24;1.70;;;1.60;;
35847;SDS011;22332;51.954;20.118;2023-07-29T12:35:36;2.00;;;1.80;;
35847;SDS011;22332;51.954;20.118;2023-07-29T12:38:43;2.00;;;1.80;;
35847;SDS011;22332;51.954;20.118;2023-07-29T12:41:51;1.80;;;1.70;;
35847;SDS011;22332;51.954;20.118;2023-07-29T12:44:57;2.10;;;1.90;;
35847;SDS011;22332;51.954;20.118;2023-07-29T12:48:03;2.10;;;1.90;;
35847;SDS011;22332;51.954;20.118;2023-07-29T12:51:08;2.80;;;1.90;;
35847;SDS011;22332;51.954;20.118;2023-07-29T12:54:14;2.10;;;1.90;;
35847;SDS011;22332;51.954;20.118;2023-07-29T12:57:19;2.00;;;1.90;;
35847;SDS011;22332;51.954;20.118;2023-07-29T13:00:25;2.40;;;2.00;;
35847;SDS011;22332;51.954;20.118;2023-07-29T13:03:31;2.00;;;1.80;;
35847;SDS011;22332;51.954;20.118;2023-07-29T13:06:36;3.00;;;2.00;;
35847;SDS011;22332;51.954;20.118;2023-07-29T13:09:42;2.30;;;1.90;;
35847;SDS011;22332;51.954;20.118;2023-07-29T13:12:47;2.10;;;1.90;;
35847;SDS011;22332;51.954;20.118;2023-07-29T13:15:53;3.40;;;2.10;;
35847;SDS011;22332;51.954;20.118;2023-07-29T13:18:58;4.30;;;2.00;;
35847;SDS011;22332;51.954;20.118;2023-07-29T13:22:04;2.20;;;2.00;;
35847;SDS011;22332;51.954;20.118;2023-07-29T13:25:09;2.20;;;2.10;;
35847;SDS011;22332;51.954;20.118;2023-07-29T13:28:15;2.10;;;1.80;;
35847;SDS011;22332;51.954;20.118;2023-07-29T13:31:21;3.70;;;2.10;;
35847;SDS011;22332;51.954;20.118;2023-07-29T13:34:27;2.90;;;2.10;;
35847;SDS011;22332;51.954;20.118;2023-07-29T13:37:33;2.30;;;1.90;;
35847;SDS011;22332;51.954;20.118;2023-07-29T13:40:38;2.00;;;1.90;;
35847;SDS011;22332;51.954;20.118;2023-07-29T13:43:44;1.90;;;1.80;;
35847;SDS011;22332;51.954;20.118;2023-07-29T13:46:49;2.20;;;2.00;;
35847;SDS011;22332;51.954;20.118;2023-07-29T13:49:55;2.40;;;2.10;;
35847;SDS011;22332;51.954;20.118;2023-07-29T13:53:00;2.20;;;2.00;;
35847;SDS011;22332;51.954;20.118;2023-07-29T13:56:06;3.10;;;2.30;;
35847;SDS011;22332;51.954;20.118;2023-07-29T13:59:11;2.80;;;2.20;;
35847;SDS011;22332;51.954;20.118;2023-07-29T14:02:17;2.20;;;2.00;;
35847;SDS011;22332;51.954;20.118;2023-07-29T14:05:22;2.50;;;2.20;;
35847;SDS011;22332;51.954;20.118;2023-07-29T14:08:28;2.30;;;2.10;;
35847;SDS011;22332;51.954;20.118;2023-07-29T14:11:33;2.40;;;2.20;;
35847;SDS011;22332;51.954;20.118;2023-07-29T14:14:39;2.70;;;2.00;;
35847;SDS011;22332;51.954;20.118;2023-07-29T14:17:45;2.30;;;2.10;;
35847;SDS011;22332;51.954;20.118;2023-07-29T14:20:50;2.10;;;2.00;;
35847;SDS011;22332;51.954;20.118;2023-07-29T14:23:55;2.60;;;2.10;;
35847;SDS011;22332;51.954;20.118;2023-07-29T14:27:01;3.30;;;2.10;;
35847;SDS011;22332;51.954;20.118;2023-07-29T14:30:07;2.30;;;2.10;;
35847;SDS011;22332;51.954;20.118;2023-07-29T14:33:14;2.80;;;2.10;;
35847;SDS011;22332;51.954;20.118;2023-07-29T14:36:20;2.00;;;1.80;;
35847;SDS011;22332;51.954;20.118;2023-07-29T14:39:25;2.30;;;2.00;;
35847;SDS011;22332;51.954;20.118;2023-07-29T14:42:31;2.10;;;1.90;;
35847;SDS011;22332;51.954;20.118;2023-07-29T14:45:36;3.00;;;1.90;;
35847;SDS011;22332;51.954;20.118;2023-07-29T14:48:41;2.60;;;2.10;;
35847;SDS011;22332;51.954;20.118;2023-07-29T14:51:48;2.40;;;2.20;;
35847;SDS011;22332;51.954;20.118;2023-07-29T14:54:53;2.60;;;2.40;;
35847;SDS011;22332;51.954;20.118;2023-07-29T14:57:59;2.40;;;2.20;;
35847;SDS011;22332;51.954;20.118;2023-07-29T15:01:04;2.30;;;2.10;;
35847;SDS011;22332;51.954;20.118;2023-07-29T15:04:10;2.20;;;2.00;;
35847;SDS011;22332;51.954;20.118;2023-07-29T15:07:16;2.60;;;2.30;;
35847;SDS011;22332;51.954;20.118;2023-07-29T15:10:21;2.40;;;2.20;;
35847;SDS011;22332;51.954;20.118;2023-07-29T15:13:27;2.40;;;2.20;;
35847;SDS011;22332;51.954;20.118;2023-07-29T15:16:32;2.10;;;1.90;;
35847;SDS011;22332;51.954;20.118;2023-07-29T15:19:38;4.70;;;2.20;;
35847;SDS011;22332;51.954;20.118;2023-07-29T15:22:43;3.90;;;2.80;;
35847;SDS011;22332;51.954;20.118;2023-07-29T15:25:49;2.30;;;2.10;;
35847;SDS011;22332;51.954;20.118;2023-07-29T15:28:54;2.00;;;1.90;;
35847;SDS011;22332;51.954;20.118;2023-07-29T15:32:01;2.30;;;2.00;;
35847;SDS011;22332;51.954;20.118;2023-07-29T15:35:08;2.30;;;2.10;;
35847;SDS011;22332;51.954;20.118;2023-07-29T15:38:14;2.70;;;2.40;;
35847;SDS011;22332;51.954;20.118;2023-07-29T15:41:19;2.40;;;2.20;;
35847;SDS011;22332;51.954;20.118;2023-07-29T15:44:25;2.70;;;2.50;;
35847;SDS011;22332;51.954;20.118;2023-07-29T15:47:30;2.90;;;2.70;;
35847;SDS011;22332;51.954;20.118;2023-07-29T15:50:36;2.50;;;2.30;;
35847;SDS011;22332;51.954;20.118;2023-07-29T15:53:41;2.50;;;2.30;;
35847;SDS011;22332;51.954;20.118;2023-07-29T15:56:47;2.70;;;2.30;;
35847;SDS011;22332;51.954;20.118;2023-07-29T15:59:53;3.10;;;2.30;;
35847;SDS011;22332;51.954;20.118;2023-07-29T16:02:58;2.50;;;2.30;;
35847;SDS011;22332;51.954;20.118;2023-07-29T16:06:04;2.50;;;2.10;;
35847;SDS011;22332;51.954;20.118;2023-07-29T16:09:09;2.90;;;2.10;;
35847;SDS011;22332;51.954;20.118;2023-07-29T16:12:15;2.40;;;2.20;;
35847;SDS011;22332;51.954;20.118;2023-07-29T16:15:21;3.00;;;2.40;;
35847;SDS011;22332;51.954;20.118;2023-07-29T16:18:26;2.70;;;2.30;;
35847;SDS011;22332;51.954;20.118;2023-07-29T16:21:32;2.50;;;2.30;;
35847;SDS011;22332;51.954;20.118;2023-07-29T16:24:37;2.90;;;2.30;;
35847;SDS011;22332;51.954;20.118;2023-07-29T16:27:43;3.60;;;2.20;;
35847;SDS011;22332;51.954;20.118;2023-07-29T16:30:48;4.10;;;2.40;;
35847;SDS011;22332;51.954;20.118;2023-07-29T16:33:54;2.80;;;2.30;;
35847;SDS011;22332;51.954;20.118;2023-07-29T16:37:00;2.50;;;2.30;;
35847;SDS011;22332;51.954;20.118;2023-07-29T16:40:06;2.40;;;2.20;;
35847;SDS011;22332;51.954;20.118;2023-07-29T16:43:13;2.50;;;2.30;;
35847;SDS011;22332;51.954;20.118;2023-07-29T16:46:18;3.20;;;2.60;;
35847;SDS011;22332;51.954;20.118;2023-07-29T16:49:24;4.00;;;2.70;;
35847;SDS011;22332;51.954;20.118;2023-07-29T16:52:29;2.40;;;2.10;;
35847;SDS011;22332;51.954;20.118;2023-07-29T16:55:35;3.00;;;2.70;;
35847;SDS011;22332;51.954;20.118;2023-07-29T16:58:40;5.10;;;2.70;;
35847;SDS011;22332;51.954;20.118;2023-07-29T17:01:46;4.10;;;3.30;;
35847;SDS011;22332;51.954;20.118;2023-07-29T17:04:51;36.60;;;31.90;;
35847;SDS011;22332;51.954;20.118;2023-07-29T17:07:57;53.40;;;46.90;;
35847;SDS011;22332;51.954;20.118;2023-07-29T17:11:02;25.70;;;22.70;;
35847;SDS011;22332;51.954;20.118;2023-07-29T17:14:09;15.90;;;13.30;;
35847;SDS011;22332;51.954;20.118;2023-07-29T17:17:14;13.00;;;11.60;;
35847;SDS011;22332;51.954;20.118;2023-07-29T17:20:20;7.30;;;6.40;;
35847;SDS011;22332;51.954;20.118;2023-07-29T17:23:25;7.80;;;6.70;;
35847;SDS011;22332;51.954;20.118;2023-07-29T17:26:31;6.80;;;6.20;;
35847;SDS011;22332;51.954;20.118;2023-07-29T17:29:36;6.70;;;5.90;;
35847;SDS011;22332;51.954;20.118;2023-07-29T17:32:43;14.80;;;13.30;;
35847;SDS011;22332;51.954;20.118;2023-07-29T17:35:48;11.90;;;9.90;;
35847;SDS011;22332;51.954;20.118;2023-07-29T17:38:54;18.70;;;13.70;;
35847;SDS011;22332;51.954;20.118;2023-07-29T17:41:59;13.10;;;10.90;;
35847;SDS011;22332;51.954;20.118;2023-07-29T17:45:06;7.20;;;6.50;;
35847;SDS011;22332;51.954;20.118;2023-07-29T17:48:12;5.00;;;4.50;;
35847;SDS011;22332;51.954;20.118;2023-07-29T17:51:18;9.30;;;7.40;;
35847;SDS011;22332;51.954;20.118;2023-07-29T17:54:23;10.30;;;8.70;;
35847;SDS011;22332;51.954;20.118;2023-07-29T17:57:29;11.30;;;9.90;;
35847;SDS011;22332;51.954;20.118;2023-07-29T18:00:34;21.20;;;16.90;;
35847;SDS011;22332;51.954;20.118;2023-07-29T18:03:40;12.10;;;10.20;;
35847;SDS011;22332;51.954;20.118;2023-07-29T18:06:45;7.70;;;6.60;;
35847;SDS011;22332;51.954;20.118;2023-07-29T18:09:51;9.10;;;7.50;;
35847;SDS011;22332;51.954;20.118;2023-07-29T18:12:56;13.60;;;10.60;;
35847;SDS011;22332;51.954;20.118;2023-07-29T18:16:04;19.70;;;16.40;;
35847;SDS011;22332;51.954;20.118;2023-07-29T18:19:09;13.00;;;10.20;;
35847;SDS011;22332;51.954;20.118;2023-07-29T18:22:14;6.10;;;5.50;;
35847;SDS011;22332;51.954;20.118;2023-07-29T18:25:20;6.70;;;5.10;;